sensor_id;sensor_type;location;lat;lon;timestamp;pressure;altitude;pressure_sealevel;temperature;humidity
70217;BME280;65567;55.684;37.570;2023-06-22T00:02:14;99385.84;;;19.17;35.07
70217;BME280;65567;55.684;37.570;2023-06-22T00:04:40;99379.81;;;19.14;35.27
70217;BME280;65567;55.684;37.570;2023-06-22T00:07:05;99382.03;;;19.09;35.83
70217;BME280;65567;55.684;37.570;2023-06-22T00:09:31;99383.00;;;19.08;35.58
70217;BME280;65567;55.684;37.570;2023-06-22T00:11:58;99383.25;;;19.05;35.99
70217;BME280;65567;55.684;37.570;2023-06-22T00:14:23;99383.00;;;19.08;35.87
70217;BME280;65567;55.684;37.570;2023-06-22T00:16:49;99371.19;;;19.01;35.27
70217;BME280;65567;55.684;37.570;2023-06-22T00:19:21;99380.16;;;19.00;35.64
70217;BME280;65567;55.684;37.570;2023-06-22T00:21:47;99380.16;;;19.00;36.17
70217;BME280;65567;55.684;37.570;2023-06-22T00:24:19;99381.47;;;18.94;36.12
70217;BME280;65567;55.684;37.570;2023-06-22T00:26:45;99383.75;;;18.99;35.31
70217;BME280;65567;55.684;37.570;2023-06-22T00:29:12;99385.56;;;18.98;35.48
70217;BME280;65567;55.684;37.570;2023-06-22T00:31:37;99385.09;;;18.93;35.81
70217;BME280;65567;55.684;37.570;2023-06-22T00:34:03;99385.97;;;18.94;35.21
70217;BME280;65567;55.684;37.570;2023-06-22T00:36:29;99381.47;;;18.94;35.28
70217;BME280;65567;55.684;37.570;2023-06-22T00:38:54;99393.06;;;18.93;35.66
70217;BME280;65567;55.684;37.570;2023-06-22T00:41:20;99393.34;;;18.90;35.59
70217;BME280;65567;55.684;37.570;2023-06-22T00:43:46;99388.25;;;18.87;35.91
70217;BME280;65567;55.684;37.570;2023-06-22T00:46:12;99391.75;;;18.88;35.62
70217;BME280;65567;55.684;37.570;2023-06-22T00:48:38;99381.13;;;18.88;35.44
70217;BME280;65567;55.684;37.570;2023-06-22T00:51:05;99384.75;;;18.87;35.49
70217;BME280;65567;55.684;37.570;2023-06-22T00:53:31;99388.34;;;18.86;35.92
70217;BME280;65567;55.684;37.570;2023-06-22T00:56:00;99385.84;;;18.84;35.96
70217;BME280;65567;55.684;37.570;2023-06-22T00:58:26;99383.06;;;18.86;35.81
70217;BME280;65567;55.684;37.570;2023-06-22T01:00:52;99385.72;;;18.86;35.72
70217;BME280;65567;55.684;37.570;2023-06-22T01:03:17;99390.31;;;18.83;35.63
70217;BME280;65567;55.684;37.570;2023-06-22T01:05:44;99384.75;;;18.87;35.63
70217;BME280;65567;55.684;37.570;2023-06-22T01:14:06;99389.31;;;18.96;35.52
70217;BME280;65567;55.684;37.570;2023-06-22T01:16:38;99382.91;;;18.98;35.41
70217;BME280;65567;55.684;37.570;2023-06-22T01:21:44;99385.59;;;19.20;35.27
70217;BME280;65567;55.684;37.570;2023-06-22T01:24:23;99389.03;;;19.31;35.49
70217;BME280;65567;55.684;37.570;2023-06-22T01:29:52;99391.81;;;19.61;35.08
70217;BME280;65567;55.684;37.570;2023-06-22T01:32:29;99393.88;;;19.78;34.82
70217;BME280;65567;55.684;37.570;2023-06-22T01:34:57;99392.72;;;19.92;34.06
70217;BME280;65567;55.684;37.570;2023-06-22T01:37:24;99390.25;;;20.10;33.78
70217;BME280;65567;55.684;37.570;2023-06-22T01:39:50;99396.72;;;20.27;33.75
70217;BME280;65567;55.684;37.570;2023-06-22T01:42:16;99391.72;;;20.44;33.91
70217;BME280;65567;55.684;37.570;2023-06-22T01:44:43;99390.34;;;20.59;33.27
70217;BME280;65567;55.684;37.570;2023-06-22T01:47:09;99390.13;;;20.82;32.65
70217;BME280;65567;55.684;37.570;2023-06-22T01:49:35;99376.38;;;21.06;32.32
70217;BME280;65567;55.684;37.570;2023-06-22T01:52:01;99383.59;;;21.43;31.71
70217;BME280;65567;55.684;37.570;2023-06-22T01:54:27;99381.72;;;21.73;31.24
70217;BME280;65567;55.684;37.570;2023-06-22T01:56:52;99379.06;;;22.01;30.83
70217;BME280;65567;55.684;37.570;2023-06-22T02:02:23;99385.91;;;22.59;30.17
70217;BME280;65567;55.684;37.570;2023-06-22T02:05:07;99394.75;;;22.78;29.83
70217;BME280;65567;55.684;37.570;2023-06-22T02:07:39;99388.72;;;22.94;29.66
70217;BME280;65567;55.684;37.570;2023-06-22T02:10:07;99395.06;;;23.11;29.74
70217;BME280;65567;55.684;37.570;2023-06-22T02:12:35;99398.34;;;23.23;29.78
70217;BME280;65567;55.684;37.570;2023-06-22T02:15:03;99375.41;;;23.38;29.27
70217;BME280;65567;55.684;37.570;2023-06-22T02:17:31;99377.88;;;23.66;29.14
70217;BME280;65567;55.684;37.570;2023-06-22T02:19:58;99381.94;;;23.79;28.84
70217;BME280;65567;55.684;37.570;2023-06-22T02:22:24;99370.69;;;23.93;28.72
70217;BME280;65567;55.684;37.570;2023-06-22T02:24:50;99378.16;;;24.24;28.54
70217;BME280;65567;55.684;37.570;2023-06-22T02:27:16;99373.88;;;24.56;27.58
70217;BME280;65567;55.684;37.570;2023-06-22T02:29:41;99369.56;;;24.80;27.17
70217;BME280;65567;55.684;37.570;2023-06-22T02:32:07;99357.19;;;25.03;27.22
70217;BME280;65567;55.684;37.570;2023-06-22T02:34:33;99356.16;;;25.21;27.28
70217;BME280;65567;55.684;37.570;2023-06-22T02:36:59;99352.47;;;25.22;26.78
70217;BME280;65567;55.684;37.570;2023-06-22T02:39:27;99355.84;;;25.07;26.62
70217;BME280;65567;55.684;37.570;2023-06-22T02:41:54;99360.38;;;24.74;27.33
70217;BME280;65567;55.684;37.570;2023-06-22T02:44:20;99352.44;;;24.56;27.19
70217;BME280;65567;55.684;37.570;2023-06-22T02:46:47;99362.53;;;24.79;26.83
70217;BME280;65567;55.684;37.570;2023-06-22T02:49:13;99349.78;;;25.14;26.65
70217;BME280;65567;55.684;37.570;2023-06-22T02:51:44;99345.06;;;25.49;26.12
70217;BME280;65567;55.684;37.570;2023-06-22T02:54:10;99353.66;;;25.84;25.63
70217;BME280;65567;55.684;37.570;2023-06-22T02:56:36;99342.81;;;26.17;25.21
70217;BME280;65567;55.684;37.570;2023-06-22T02:59:02;99346.97;;;26.51;24.82
70217;BME280;65567;55.684;37.570;2023-06-22T03:01:28;99337.19;;;26.81;24.48
70217;BME280;65567;55.684;37.570;2023-06-22T03:03:56;99331.63;;;27.21;24.10
70217;BME280;65567;55.684;37.570;2023-06-22T03:06:22;99331.69;;;27.51;23.85
70217;BME280;65567;55.684;37.570;2023-06-22T03:08:49;99333.16;;;27.68;23.39
70217;BME280;65567;55.684;37.570;2023-06-22T03:11:15;99329.69;;;27.90;23.29
70217;BME280;65567;55.684;37.570;2023-06-22T03:13:41;99336.69;;;28.21;22.79
70217;BME280;65567;55.684;37.570;2023-06-22T03:16:07;99335.19;;;28.55;22.36
70217;BME280;65567;55.684;37.570;2023-06-22T03:18:32;99339.13;;;28.95;21.93
70217;BME280;65567;55.684;37.570;2023-06-22T03:20:58;99323.31;;;29.21;21.70
70217;BME280;65567;55.684;37.570;2023-06-22T03:23:24;99332.50;;;29.26;21.40
70217;BME280;65567;55.684;37.570;2023-06-22T03:25:50;99328.50;;;29.22;21.52
70217;BME280;65567;55.684;37.570;2023-06-22T03:28:16;99324.09;;;29.43;21.67
70217;BME280;65567;55.684;37.570;2023-06-22T03:30:41;99316.75;;;29.65;21.15
70217;BME280;65567;55.684;37.570;2023-06-22T03:33:07;99316.25;;;29.48;20.96
70217;BME280;65567;55.684;37.570;2023-06-22T03:35:33;99319.81;;;29.90;20.67
70217;BME280;65567;55.684;37.570;2023-06-22T03:37:58;99314.31;;;30.32;20.14
70217;BME280;65567;55.684;37.570;2023-06-22T03:40:24;99316.25;;;30.52;19.96
70217;BME280;65567;55.684;37.570;2023-06-22T03:42:50;99313.72;;;30.43;20.00
70217;BME280;65567;55.684;37.570;2023-06-22T03:45:16;99309.81;;;30.59;20.05
70217;BME280;65567;55.684;37.570;2023-06-22T03:47:41;99317.09;;;30.92;19.85
70217;BME280;65567;55.684;37.570;2023-06-22T03:50:07;99305.25;;;31.20;19.33
70217;BME280;65567;55.684;37.570;2023-06-22T03:52:33;99306.59;;;31.50;18.65
70217;BME280;65567;55.684;37.570;2023-06-22T03:54:59;99295.06;;;31.81;18.63
70217;BME280;65567;55.684;37.570;2023-06-22T03:57:25;99301.16;;;31.70;18.59
70217;BME280;65567;55.684;37.570;2023-06-22T03:59:50;99306.38;;;31.51;18.40
70217;BME280;65567;55.684;37.570;2023-06-22T04:02:16;99307.81;;;31.74;18.54
70217;BME280;65567;55.684;37.570;2023-06-22T04:04:42;99306.22;;;31.98;18.40
70217;BME280;65567;55.684;37.570;2023-06-22T04:07:08;99300.25;;;32.28;17.87
70217;BME280;65567;55.684;37.570;2023-06-22T04:09:34;99299.84;;;32.56;17.77
70217;BME280;65567;55.684;37.570;2023-06-22T04:12:00;99302.47;;;32.70;17.54
70217;BME280;65567;55.684;37.570;2023-06-22T04:14:26;99292.97;;;32.86;17.94
70217;BME280;65567;55.684;37.570;2023-06-22T04:16:52;99292.91;;;32.92;17.74
70217;BME280;65567;55.684;37.570;2023-06-22T04:19:17;99289.09;;;32.75;17.63
70217;BME280;65567;55.684;37.570;2023-06-22T04:21:44;99289.56;;;32.40;18.11
70217;BME280;65567;55.684;37.570;2023-06-22T04:24:11;99293.03;;;32.15;18.02
70217;BME280;65567;55.684;37.570;2023-06-22T04:26:36;99285.28;;;31.80;18.67
70217;BME280;65567;55.684;37.570;2023-06-22T04:29:05;99291.59;;;31.60;18.71
70217;BME280;65567;55.684;37.570;2023-06-22T04:31:32;99281.25;;;31.37;18.89
70217;BME280;65567;55.684;37.570;2023-06-22T04:34:05;99286.69;;;31.17;18.78
70217;BME280;65567;55.684;37.570;2023-06-22T04:36:34;99282.97;;;31.18;19.09
70217;BME280;65567;55.684;37.570;2023-06-22T04:39:10;99287.72;;;31.16;19.19
70217;BME280;65567;55.684;37.570;2023-06-22T04:41:40;99289.03;;;30.73;19.33
70217;BME280;65567;55.684;37.570;2023-06-22T04:44:16;99287.75;;;30.62;19.68
70217;BME280;65567;55.684;37.570;2023-06-22T04:46:52;99283.81;;;30.58;19.91
70217;BME280;65567;55.684;37.570;2023-06-22T04:49:20;99275.06;;;30.90;19.51
70217;BME280;65567;55.684;37.570;2023-06-22T04:51:48;99282.06;;;31.38;19.52
70217;BME280;65567;55.684;37.570;2023-06-22T04:54:15;99267.84;;;31.62;18.89
70217;BME280;65567;55.684;37.570;2023-06-22T04:56:40;99275.56;;;32.04;18.76
70217;BME280;65567;55.684;37.570;2023-06-22T04:59:07;99278.66;;;32.47;18.69
70217;BME280;65567;55.684;37.570;2023-06-22T05:01:33;99265.06;;;32.78;18.28
70217;BME280;65567;55.684;37.570;2023-06-22T05:04:00;99275.28;;;32.51;18.36
70217;BME280;65567;55.684;37.570;2023-06-22T05:06:27;99285.28;;;32.25;18.81
70217;BME280;65567;55.684;37.570;2023-06-22T05:08:53;99282.94;;;32.29;18.63
70217;BME280;65567;55.684;37.570;2023-06-22T05:11:26;99296.97;;;32.51;18.66
70217;BME280;65567;55.684;37.570;2023-06-22T05:13:52;99281.78;;;32.75;18.65
70217;BME280;65567;55.684;37.570;2023-06-22T05:16:19;99286.97;;;33.02;18.12
70217;BME280;65567;55.684;37.570;2023-06-22T05:18:53;99290.31;;;32.79;18.32
70217;BME280;65567;55.684;37.570;2023-06-22T05:21:28;99296.44;;;32.68;18.69
70217;BME280;65567;55.684;37.570;2023-06-22T05:23:54;99285.56;;;32.68;18.74
70217;BME280;65567;55.684;37.570;2023-06-22T05:26:20;99284.03;;;33.04;18.40
70217;BME280;65567;55.684;37.570;2023-06-22T05:28:47;99275.19;;;33.34;18.10
70217;BME280;65567;55.684;37.570;2023-06-22T05:31:14;99276.38;;;33.56;17.87
70217;BME280;65567;55.684;37.570;2023-06-22T05:33:41;99279.03;;;33.82;17.92
70217;BME280;65567;55.684;37.570;2023-06-22T05:36:07;99275.22;;;34.01;17.81
70217;BME280;65567;55.684;37.570;2023-06-22T05:38:34;99275.50;;;34.23;17.82
70217;BME280;65567;55.684;37.570;2023-06-22T05:40:59;99282.72;;;34.72;17.02
70217;BME280;65567;55.684;37.570;2023-06-22T05:43:25;99278.34;;;35.30;16.66
70217;BME280;65567;55.684;37.570;2023-06-22T05:45:51;99276.59;;;35.77;16.57
70217;BME280;65567;55.684;37.570;2023-06-22T05:48:17;99280.94;;;36.18;16.12
70217;BME280;65567;55.684;37.570;2023-06-22T05:50:43;99270.69;;;36.26;16.21
70217;BME280;65567;55.684;37.570;2023-06-22T05:53:08;99283.84;;;36.29;15.88
70217;BME280;65567;55.684;37.570;2023-06-22T05:55:34;99267.59;;;36.05;15.88
70217;BME280;65567;55.684;37.570;2023-06-22T05:58:00;99271.97;;;36.35;16.17
70217;BME280;65567;55.684;37.570;2023-06-22T06:00:26;99277.03;;;36.77;15.35
70217;BME280;65567;55.684;37.570;2023-06-22T06:02:52;99274.13;;;36.67;15.85
70217;BME280;65567;55.684;37.570;2023-06-22T06:05:17;99269.50;;;36.84;15.71
70217;BME280;65567;55.684;37.570;2023-06-22T06:07:44;99278.06;;;37.10;15.64
70217;BME280;65567;55.684;37.570;2023-06-22T06:10:10;99271.09;;;37.19;15.14
70217;BME280;65567;55.684;37.570;2023-06-22T06:12:36;99269.47;;;37.01;15.38
70217;BME280;65567;55.684;37.570;2023-06-22T06:15:03;99271.13;;;37.02;15.28
70217;BME280;65567;55.684;37.570;2023-06-22T06:17:29;99270.50;;;36.61;16.06
70217;BME280;65567;55.684;37.570;2023-06-22T06:19:55;99264.63;;;36.52;15.88
70217;BME280;65567;55.684;37.570;2023-06-22T06:22:21;99273.63;;;36.70;15.38
70217;BME280;65567;55.684;37.570;2023-06-22T06:24:49;99275.72;;;36.63;15.70
70217;BME280;65567;55.684;37.570;2023-06-22T06:27:15;99279.44;;;36.40;15.61
70217;BME280;65567;55.684;37.570;2023-06-22T06:29:43;99275.13;;;36.61;15.48
70217;BME280;65567;55.684;37.570;2023-06-22T06:32:11;99275.44;;;36.81;15.44
70217;BME280;65567;55.684;37.570;2023-06-22T06:34:37;99282.38;;;37.06;15.15
70217;BME280;65567;55.684;37.570;2023-06-22T06:37:03;99274.53;;;37.10;15.00
70217;BME280;65567;55.684;37.570;2023-06-22T06:39:29;99277.28;;;36.59;15.21
70217;BME280;65567;55.684;37.570;2023-06-22T06:41:55;99278.56;;;36.39;15.21
70217;BME280;65567;55.684;37.570;2023-06-22T06:44:20;99273.72;;;36.41;15.86
70217;BME280;65567;55.684;37.570;2023-06-22T06:46:46;99275.03;;;36.72;15.30
70217;BME280;65567;55.684;37.570;2023-06-22T06:49:12;99267.34;;;36.86;14.77
70217;BME280;65567;55.684;37.570;2023-06-22T06:51:38;99270.97;;;36.75;15.38
70217;BME280;65567;55.684;37.570;2023-06-22T06:54:04;99269.22;;;36.69;15.20
70217;BME280;65567;55.684;37.570;2023-06-22T06:56:30;99267.44;;;36.92;14.92
70217;BME280;65567;55.684;37.570;2023-06-22T06:58:58;99260.97;;;36.81;14.75
70217;BME280;65567;55.684;37.570;2023-06-22T07:01:24;99271.63;;;36.82;15.62
70217;BME280;65567;55.684;37.570;2023-06-22T07:03:50;99263.13;;;36.96;15.25
70217;BME280;65567;55.684;37.570;2023-06-22T07:06:16;99266.00;;;37.06;14.92
70217;BME280;65567;55.684;37.570;2023-06-22T07:08:42;99269.13;;;37.15;14.99
70217;BME280;65567;55.684;37.570;2023-06-22T07:11:08;99266.38;;;36.93;15.19
70217;BME280;65567;55.684;37.570;2023-06-22T07:13:34;99266.50;;;36.69;15.24
70217;BME280;65567;55.684;37.570;2023-06-22T07:16:00;99264.16;;;36.27;15.26
70217;BME280;65567;55.684;37.570;2023-06-22T07:18:25;99263.63;;;35.96;15.89
70217;BME280;65567;55.684;37.570;2023-06-22T07:20:52;99263.19;;;35.75;16.18
70217;BME280;65567;55.684;37.570;2023-06-22T07:23:18;99263.03;;;35.53;16.66
70217;BME280;65567;55.684;37.570;2023-06-22T07:25:43;99260.84;;;35.38;16.93
70217;BME280;65567;55.684;37.570;2023-06-22T07:28:09;99265.59;;;34.95;16.83
70217;BME280;65567;55.684;37.570;2023-06-22T07:30:36;99261.09;;;34.89;17.50
70217;BME280;65567;55.684;37.570;2023-06-22T07:33:02;99254.81;;;34.77;17.38
70217;BME280;65567;55.684;37.570;2023-06-22T07:35:33;99259.03;;;34.61;17.31
70217;BME280;65567;55.684;37.570;2023-06-22T07:37:59;99255.50;;;34.48;17.28
70217;BME280;65567;55.684;37.570;2023-06-22T07:40:26;99256.13;;;34.32;17.80
70217;BME280;65567;55.684;37.570;2023-06-22T07:42:51;99245.91;;;34.15;18.01
70217;BME280;65567;55.684;37.570;2023-06-22T07:45:18;99255.19;;;34.26;18.15
70217;BME280;65567;55.684;37.570;2023-06-22T07:47:44;99250.84;;;34.37;17.75
70217;BME280;65567;55.684;37.570;2023-06-22T07:50:10;99248.63;;;34.34;17.93
70217;BME280;65567;55.684;37.570;2023-06-22T07:52:36;99256.78;;;34.34;18.42
70217;BME280;65567;55.684;37.570;2023-06-22T07:55:02;99252.47;;;34.26;18.57
70217;BME280;65567;55.684;37.570;2023-06-22T07:57:28;99251.72;;;34.19;18.00
70217;BME280;65567;55.684;37.570;2023-06-22T08:00:04;99248.44;;;34.17;18.41
70217;BME280;65567;55.684;37.570;2023-06-22T08:02:37;99237.97;;;34.32;18.04
70217;BME280;65567;55.684;37.570;2023-06-22T08:05:03;99245.06;;;34.45;18.16
70217;BME280;65567;55.684;37.570;2023-06-22T08:07:29;99242.13;;;34.47;17.92
70217;BME280;65567;55.684;37.570;2023-06-22T08:09:58;99233.84;;;34.41;18.06
70217;BME280;65567;55.684;37.570;2023-06-22T08:12:24;99237.91;;;34.20;18.24
70217;BME280;65567;55.684;37.570;2023-06-22T08:14:50;99237.84;;;33.97;18.14
70217;BME280;65567;55.684;37.570;2023-06-22T08:17:15;99237.88;;;33.78;18.68
70217;BME280;65567;55.684;37.570;2023-06-22T08:19:41;99232.09;;;33.56;18.70
70217;BME280;65567;55.684;37.570;2023-06-22T08:22:07;99230.53;;;33.48;18.77
70217;BME280;65567;55.684;37.570;2023-06-22T08:24:36;99233.53;;;33.58;18.80
70217;BME280;65567;55.684;37.570;2023-06-22T08:27:02;99235.13;;;33.29;18.82
70217;BME280;65567;55.684;37.570;2023-06-22T08:29:27;99234.47;;;33.34;19.07
70217;BME280;65567;55.684;37.570;2023-06-22T08:31:53;99225.81;;;33.55;19.37
70217;BME280;65567;55.684;37.570;2023-06-22T08:34:19;99220.59;;;33.72;18.61
70217;BME280;65567;55.684;37.570;2023-06-22T08:36:47;99223.34;;;33.54;18.85
70217;BME280;65567;55.684;37.570;2023-06-22T08:39:19;99222.06;;;33.19;18.53
70217;BME280;65567;55.684;37.570;2023-06-22T08:41:46;99223.44;;;33.10;19.01
70217;BME280;65567;55.684;37.570;2023-06-22T08:44:12;99222.41;;;33.30;19.11
70217;BME280;65567;55.684;37.570;2023-06-22T08:46:38;99218.00;;;33.47;19.12
70217;BME280;65567;55.684;37.570;2023-06-22T08:49:06;99218.41;;;33.81;18.99
70217;BME280;65567;55.684;37.570;2023-06-22T08:51:32;99210.69;;;34.20;18.46
70217;BME280;65567;55.684;37.570;2023-06-22T08:53:58;99207.47;;;34.54;18.34
70217;BME280;65567;55.684;37.570;2023-06-22T08:56:23;99199.41;;;34.95;17.49
70217;BME280;65567;55.684;37.570;2023-06-22T08:58:49;99200.47;;;35.17;17.09
70217;BME280;65567;55.684;37.570;2023-06-22T09:01:15;99206.22;;;35.33;17.27
70217;BME280;65567;55.684;37.570;2023-06-22T09:03:41;99203.19;;;35.58;16.90
70217;BME280;65567;55.684;37.570;2023-06-22T09:06:07;99208.22;;;35.78;16.59
70217;BME280;65567;55.684;37.570;2023-06-22T09:08:35;99205.13;;;35.86;16.25
70217;BME280;65567;55.684;37.570;2023-06-22T09:11:01;99198.78;;;35.98;16.26
70217;BME280;65567;55.684;37.570;2023-06-22T09:15:54;99194.47;;;36.70;16.22
70217;BME280;65567;55.684;37.570;2023-06-22T09:18:20;99189.75;;;36.82;15.76
70217;BME280;65567;55.684;37.570;2023-06-22T09:20:46;99184.88;;;37.07;16.14
70217;BME280;65567;55.684;37.570;2023-06-22T09:23:11;99178.72;;;37.16;15.33
70217;BME280;65567;55.684;37.570;2023-06-22T09:25:40;99185.22;;;37.32;15.85
70217;BME280;65567;55.684;37.570;2023-06-22T09:28:06;99171.63;;;37.38;15.45
70217;BME280;65567;55.684;37.570;2023-06-22T09:30:32;99182.72;;;37.31;15.76
70217;BME280;65567;55.684;37.570;2023-06-22T09:32:58;99182.50;;;37.32;15.77
70217;BME280;65567;55.684;37.570;2023-06-22T09:35:23;99186.63;;;37.35;15.77
70217;BME280;65567;55.684;37.570;2023-06-22T09:37:49;99173.13;;;37.50;15.40
70217;BME280;65567;55.684;37.570;2023-06-22T09:40:15;99181.59;;;37.49;15.59
70217;BME280;65567;55.684;37.570;2023-06-22T09:42:42;99177.00;;;37.55;15.42
70217;BME280;65567;55.684;37.570;2023-06-22T09:45:08;99177.66;;;37.40;15.40
70217;BME280;65567;55.684;37.570;2023-06-22T09:47:34;99184.41;;;37.32;15.71
70217;BME280;65567;55.684;37.570;2023-06-22T09:50:00;99169.72;;;37.38;15.49
70217;BME280;65567;55.684;37.570;2023-06-22T09:52:26;99167.06;;;37.43;15.50
70217;BME280;65567;55.684;37.570;2023-06-22T09:54:52;99163.69;;;37.14;16.09
70217;BME280;65567;55.684;37.570;2023-06-22T09:57:17;99161.53;;;37.16;15.86
70217;BME280;65567;55.684;37.570;2023-06-22T09:59:43;99161.28;;;37.17;15.83
70217;BME280;65567;55.684;37.570;2023-06-22T10:02:09;99161.38;;;37.28;15.53
70217;BME280;65567;55.684;37.570;2023-06-22T10:04:35;99153.28;;;37.11;15.70
70217;BME280;65567;55.684;37.570;2023-06-22T10:07:01;99159.94;;;36.98;16.15
70217;BME280;65567;55.684;37.570;2023-06-22T10:09:27;99167.63;;;36.62;15.65
70217;BME280;65567;55.684;37.570;2023-06-22T10:11:53;99162.84;;;36.35;16.71
70217;BME280;65567;55.684;37.570;2023-06-22T10:14:19;99163.34;;;36.49;16.26
70217;BME280;65567;55.684;37.570;2023-06-22T10:16:45;99157.28;;;36.47;16.63
70217;BME280;65567;55.684;37.570;2023-06-22T10:19:10;99152.75;;;36.52;16.41
70217;BME280;65567;55.684;37.570;2023-06-22T10:21:36;99161.34;;;36.44;16.12
70217;BME280;65567;55.684;37.570;2023-06-22T10:24:03;99147.31;;;36.35;16.19
70217;BME280;65567;55.684;37.570;2023-06-22T10:26:32;99132.91;;;36.23;16.42
70217;BME280;65567;55.684;37.570;2023-06-22T10:28:59;99133.91;;;36.17;16.29
70217;BME280;65567;55.684;37.570;2023-06-22T10:31:25;99125.56;;;35.89;16.51
70217;BME280;65567;55.684;37.570;2023-06-22T10:33:51;99119.66;;;35.64;16.92
70217;BME280;65567;55.684;37.570;2023-06-22T10:36:16;99116.25;;;35.56;16.44
70217;BME280;65567;55.684;37.570;2023-06-22T10:38:42;99118.34;;;35.37;16.64
70217;BME280;65567;55.684;37.570;2023-06-22T10:41:08;99115.22;;;35.17;17.02
70217;BME280;65567;55.684;37.570;2023-06-22T10:43:34;99114.69;;;35.03;17.50
70217;BME280;65567;55.684;37.570;2023-06-22T10:45:59;99109.91;;;34.57;17.45
70217;BME280;65567;55.684;37.570;2023-06-22T10:48:25;99108.69;;;34.18;18.24
70217;BME280;65567;55.684;37.570;2023-06-22T10:50:51;99110.59;;;33.75;18.28
70217;BME280;65567;55.684;37.570;2023-06-22T10:53:16;99108.88;;;33.50;18.47
70217;BME280;65567;55.684;37.570;2023-06-22T10:55:42;99096.56;;;33.36;18.71
70217;BME280;65567;55.684;37.570;2023-06-22T10:58:08;99098.16;;;32.94;19.05
70217;BME280;65567;55.684;37.570;2023-06-22T11:00:34;99100.19;;;32.81;19.41
70217;BME280;65567;55.684;37.570;2023-06-22T11:02:59;99092.09;;;32.55;19.72
70217;BME280;65567;55.684;37.570;2023-06-22T11:05:25;99089.13;;;32.13;19.93
70217;BME280;65567;55.684;37.570;2023-06-22T11:07:51;99096.50;;;31.80;20.31
70217;BME280;65567;55.684;37.570;2023-06-22T11:10:17;99095.00;;;31.53;20.94
70217;BME280;65567;55.684;37.570;2023-06-22T11:12:42;99090.72;;;31.38;20.98
70217;BME280;65567;55.684;37.570;2023-06-22T11:15:08;99085.31;;;31.31;21.44
70217;BME280;65567;55.684;37.570;2023-06-22T11:17:35;99088.03;;;31.31;21.50
70217;BME280;65567;55.684;37.570;2023-06-22T11:20:01;99082.97;;;31.42;21.37
70217;BME280;65567;55.684;37.570;2023-06-22T11:22:29;99087.97;;;31.45;21.20
70217;BME280;65567;55.684;37.570;2023-06-22T11:24:58;99083.78;;;31.49;21.54
70217;BME280;65567;55.684;37.570;2023-06-22T11:27:24;99073.00;;;31.42;21.54
70217;BME280;65567;55.684;37.570;2023-06-22T11:29:50;99071.56;;;31.40;21.47
70217;BME280;65567;55.684;37.570;2023-06-22T11:32:18;99076.78;;;31.35;21.14
70217;BME280;65567;55.684;37.570;2023-06-22T11:34:44;99075.56;;;31.30;21.54
70217;BME280;65567;55.684;37.570;2023-06-22T11:37:10;99064.38;;;31.20;21.46
70217;BME280;65567;55.684;37.570;2023-06-22T11:39:36;99059.19;;;31.12;21.78
70217;BME280;65567;55.684;37.570;2023-06-22T11:42:02;99061.50;;;31.15;21.91
70217;BME280;65567;55.684;37.570;2023-06-22T11:44:27;99062.91;;;31.24;21.74
70217;BME280;65567;55.684;37.570;2023-06-22T11:46:53;99059.16;;;31.25;21.76
70217;BME280;65567;55.684;37.570;2023-06-22T11:49:19;99058.06;;;31.33;21.84
70217;BME280;65567;55.684;37.570;2023-06-22T11:51:45;99055.69;;;31.43;21.92
70217;BME280;65567;55.684;37.570;2023-06-22T11:54:10;99059.63;;;31.47;21.71
70217;BME280;65567;55.684;37.570;2023-06-22T11:56:36;99047.19;;;31.40;21.04
70217;BME280;65567;55.684;37.570;2023-06-22T11:59:02;99045.19;;;31.28;21.77
70217;BME280;65567;55.684;37.570;2023-06-22T12:01:28;99031.47;;;31.23;21.69
70217;BME280;65567;55.684;37.570;2023-06-22T12:03:53;99038.94;;;31.28;22.25
70217;BME280;65567;55.684;37.570;2023-06-22T12:06:19;99041.44;;;31.29;22.41
70217;BME280;65567;55.684;37.570;2023-06-22T12:08:45;99027.78;;;31.43;21.64
70217;BME280;65567;55.684;37.570;2023-06-22T12:11:11;99023.25;;;31.37;21.72
70217;BME280;65567;55.684;37.570;2023-06-22T12:13:36;99019.31;;;31.33;21.97
70217;BME280;65567;55.684;37.570;2023-06-22T12:16:02;99018.09;;;31.28;22.31
70217;BME280;65567;55.684;37.570;2023-06-22T12:18:28;99012.88;;;31.34;21.95
70217;BME280;65567;55.684;37.570;2023-06-22T12:20:54;99012.53;;;31.23;21.97
70217;BME280;65567;55.684;37.570;2023-06-22T12:23:19;99007.47;;;31.34;21.72
70217;BME280;65567;55.684;37.570;2023-06-22T12:25:45;99001.59;;;31.37;21.93
70217;BME280;65567;55.684;37.570;2023-06-22T12:28:11;99005.19;;;31.30;21.98
70217;BME280;65567;55.684;37.570;2023-06-22T12:30:37;99003.34;;;31.24;21.63
70217;BME280;65567;55.684;37.570;2023-06-22T12:33:03;98989.78;;;31.31;21.88
70217;BME280;65567;55.684;37.570;2023-06-22T12:35:28;99003.19;;;31.44;21.84
70217;BME280;65567;55.684;37.570;2023-06-22T12:37:54;98996.97;;;31.44;21.48
70217;BME280;65567;55.684;37.570;2023-06-22T12:40:20;98987.97;;;31.50;21.29
70217;BME280;65567;55.684;37.570;2023-06-22T12:42:46;98984.31;;;31.38;21.35
70217;BME280;65567;55.684;37.570;2023-06-22T12:45:12;98972.41;;;31.13;21.35
70217;BME280;65567;55.684;37.570;2023-06-22T12:47:38;98988.91;;;30.98;21.69
70217;BME280;65567;55.684;37.570;2023-06-22T12:50:04;98978.97;;;30.92;21.83
70217;BME280;65567;55.684;37.570;2023-06-22T12:52:30;98983.44;;;31.12;21.63
70217;BME280;65567;55.684;37.570;2023-06-22T12:54:57;98977.56;;;31.22;21.13
70217;BME280;65567;55.684;37.570;2023-06-22T12:57:23;98970.88;;;31.24;21.60
70217;BME280;65567;55.684;37.570;2023-06-22T12:59:49;98970.78;;;31.38;21.04
70217;BME280;65567;55.684;37.570;2023-06-22T13:02:15;98964.97;;;31.34;21.06
70217;BME280;65567;55.684;37.570;2023-06-22T13:04:40;98965.97;;;31.40;20.89